Time;durP1;ratioP1;P1;durP2;ratioP2;P2;SDS_P1;SDS_P2;PMS_P1;PMS_P2;Temp;Humidity;BMP_temperature;BMP_pressure;BME280_temperature;BME280_humidity;BME280_pressure;Samples;Min_cycle;Max_cycle;Signal;HPM_P1;HPM_P2
2023/04/23 00:00:38;;;;;;;1.73;1.60;;;;;;;12.80;51.41;99366.06;4436636;32;33786;-81
2023/04/23 00:03:11;;;;;;;6.22;1.92;;;;;;;12.81;51.70;99357.38;4435911;32;34517;-81
2023/04/23 00:05:43;;;;;;;7.10;3.15;;;;;;;12.55;52.32;99358.09;4433783;32;33478;-81
2023/04/23 00:08:12;;;;;;;1.50;1.12;;;;;;;12.54;52.55;99353.78;4428068;32;34343;-80
2023/04/23 00:10:41;;;;;;;1.83;1.33;;;;;;;12.47;52.47;99349.62;4437381;32;33663;-80
2023/04/23 00:13:10;;;;;;;1.30;1.20;;;;;;;12.60;52.05;99355.34;4430382;32;33950;-80
2023/04/23 00:15:40;;;;;;;1.20;1.10;;;;;;;12.42;52.52;99355.84;4430015;32;33406;-82
2023/04/23 00:18:09;;;;;;;1.48;1.25;;;;;;;12.38;52.44;99358.53;4432551;32;33779;-81
2023/04/23 00:20:38;;;;;;;1.62;1.20;;;;;;;12.39;51.92;99359.38;4435360;32;33794;-80
2023/04/23 00:23:11;;;;;;;1.80;1.67;;;;;;;12.27;52.23;99351.88;4434267;32;34476;-83
2023/04/23 00:25:40;;;;;;;1.35;1.05;;;;;;;12.33;51.96;99355.19;4443671;32;33055;-81
2023/04/23 00:28:09;;;;;;;0.80;0.80;;;;;;;12.17;52.42;99353.87;4432556;32;32263;-80
2023/04/23 00:30:38;;;;;;;1.58;1.27;;;;;;;12.36;51.84;99349.06;4441129;32;33862;-80
2023/04/23 00:33:07;;;;;;;1.62;1.02;;;;;;;12.45;51.53;99350.56;4441492;32;32355;-82
2023/04/23 00:35:36;;;;;;;1.60;0.90;;;;;;;12.07;52.17;99344.59;4434619;32;33934;-80
2023/04/23 00:38:04;;;;;;;1.23;1.02;;;;;;;12.20;52.06;99345.13;4430121;32;34338;-81
2023/04/23 00:40:35;;;;;;;0.90;0.90;;;;;;;12.34;51.84;99345.63;4438571;32;34521;-80
2023/04/23 00:43:04;;;;;;;0.85;0.82;;;;;;;12.25;52.09;99344.16;4438821;32;33144;-81
2023/04/23 00:45:33;;;;;;;1.10;1.00;;;;;;;12.22;52.23;99340.75;4441873;32;33726;-82
2023/04/23 00:48:02;;;;;;;1.25;1.15;;;;;;;12.39;51.44;99341.16;4432426;32;34586;-80
2023/04/23 00:50:31;;;;;;;3.10;1.27;;;;;;;12.32;51.88;99345.69;4432073;32;33901;-80
2023/04/23 00:53:00;;;;;;;1.10;1.00;;;;;;;12.05;52.50;99347.22;4429634;32;34149;-82
2023/04/23 00:55:29;;;;;;;2.08;1.70;;;;;;;12.02;52.92;99349.91;4437028;32;32992;-79
2023/04/23 00:58:00;;;;;;;2.05;1.10;;;;;;;12.08;53.01;99348.88;4432463;32;33895;-82
2023/04/23 01:00:29;;;;;;;1.58;1.23;;;;;;;11.87;53.35;99348.53;4432721;32;33593;-81
2023/04/23 01:03:00;;;;;;;1.20;1.10;;;;;;;12.10;52.54;99341.91;4442899;32;33627;-81
2023/04/23 01:05:29;;;;;;;1.65;1.20;;;;;;;11.88;53.01;99347.63;4434887;32;33570;-81
2023/04/23 01:07:58;;;;;;;1.12;1.00;;;;;;;11.77;53.04;99336.63;4434790;32;34285;-81
2023/04/23 01:10:27;;;;;;;1.70;1.12;;;;;;;11.84;52.60;99339.91;4429088;32;33970;-82
2023/04/23 01:12:56;;;;;;;1.30;1.20;;;;;;;11.98;52.19;99342.22;4436561;32;34343;-81
2023/04/23 01:15:26;;;;;;;0.70;0.70;;;;;;;12.04;51.93;99339.47;4441028;32;33387;-81
2023/04/23 01:17:56;;;;;;;1.35;1.02;;;;;;;11.78;52.54;99340.91;4448889;32;33246;-81
2023/04/23 01:20:25;;;;;;;1.92;1.40;;;;;;;11.94;51.98;99339.69;4430428;32;34451;-82
2023/04/23 01:22:55;;;;;;;0.90;0.90;;;;;;;11.88;52.25;99342.44;4445588;32;33180;-79
2023/04/23 01:25:23;;;;;;;1.25;1.08;;;;;;;11.95;52.21;99338.78;4445531;32;33808;-82
2023/04/23 01:27:52;;;;;;;0.98;0.98;;;;;;;12.10;51.88;99337.56;4445776;32;34368;-80
2023/04/23 01:30:22;;;;;;;0.90;0.90;;;;;;;11.95;52.50;99338.78;4436685;32;33796;-80
2023/04/23 01:32:51;;;;;;;1.20;1.10;;;;;;;11.98;52.41;99342.22;4435013;32;34829;-82
2023/04/23 01:35:20;;;;;;;1.95;1.40;;;;;;;11.87;52.41;99332.94;4429185;32;34547;-82
2023/04/23 01:37:50;;;;;;;1.55;1.45;;;;;;;12.10;51.76;99339.31;4429951;32;33647;-81
2023/04/23 01:40:21;;;;;;;1.17;1.10;;;;;;;11.99;52.05;99339.59;4442010;32;32817;-82
2023/04/23 01:42:50;;;;;;;3.20;1.20;;;;;;;11.71;52.68;99339.34;4440447;32;34565;-81
2023/04/23 01:45:19;;;;;;;1.40;1.27;;;;;;;11.53;53.00;99331.09;4426801;32;33882;-81
2023/04/23 01:47:48;;;;;;;1.00;1.00;;;;;;;11.71;52.83;99337.59;4431722;32;34275;-81
2023/04/23 01:50:17;;;;;;;0.90;0.90;;;;;;;11.50;53.25;99332.91;4433187;32;34826;-80
2023/04/23 01:52:46;;;;;;;1.95;1.80;;;;;;;11.59;52.79;99334.44;4433449;32;33648;-79
2023/04/23 01:55:15;;;;;;;1.20;0.90;;;;;;;11.36;53.42;99325.44;4443069;32;33136;-81
2023/04/23 01:57:45;;;;;;;1.08;0.98;;;;;;;11.73;52.49;99324.59;4438808;32;33523;-82
2023/04/23 02:00:16;;;;;;;2.08;0.90;;;;;;;11.57;52.80;99321.47;4438973;32;33519;-81
2023/04/23 02:02:45;;;;;;;1.70;1.05;;;;;;;11.28;53.52;99319.53;4437330;32;33657;-81
2023/04/23 02:05:17;;;;;;;1.00;0.90;;;;;;;11.42;53.20;99316.66;4442563;32;33085;-80
2023/04/23 02:07:47;;;;;;;1.73;1.50;;;;;;;11.67;52.49;99316.91;4434040;32;33576;-82
2023/04/23 02:10:17;;;;;;;1.60;1.40;;;;;;;11.70;52.26;99316.88;4433721;32;33684;-83
2023/04/23 02:12:48;;;;;;;1.30;1.20;;;;;;;11.72;52.36;99318.53;4437428;32;34292;-81
2023/04/23 02:15:18;;;;;;;1.65;1.55;;;;;;;11.74;52.25;99318.47;4443453;32;32686;-82
2023/04/23 02:17:49;;;;;;;1.23;1.12;;;;;;;11.78;52.26;99309.72;4429101;32;33669;-81
2023/04/23 02:20:20;;;;;;;2.15;2.03;;;;;;;11.46;52.92;99313.94;4430239;32;33530;-82
2023/04/23 02:22:50;;;;;;;1.10;1.00;;;;;;;11.64;52.61;99315.25;4430933;32;34393;-81
2023/04/23 02:25:20;;;;;;;1.48;1.23;;;;;;;11.33;53.27;99315.09;4438422;32;34482;-82
2023/04/23 02:27:51;;;;;;;0.95;0.90;;;;;;;11.66;52.53;99313.47;4436648;32;34562;-81
2023/04/23 02:30:20;;;;;;;0.95;0.95;;;;;;;11.30;53.49;99305.63;4440955;32;33989;-82
2023/04/23 02:32:49;;;;;;;0.85;0.85;;;;;;;11.47;52.98;99307.00;4437900;32;33691;-81
2023/04/23 02:35:18;;;;;;;1.75;1.27;;;;;;;11.48;52.67;99309.56;4446696;32;32794;-80
2023/04/23 02:37:47;;;;;;;2.75;1.40;;;;;;;11.57;52.64;99316.28;4434382;32;33739;-81
2023/04/23 02:40:16;;;;;;;1.35;1.05;;;;;;;11.49;52.64;99308.66;4430399;32;33582;-79
2023/04/23 02:42:47;;;;;;;1.30;1.20;;;;;;;11.60;52.65;99311.03;4428850;32;33474;-82
2023/04/23 02:45:18;;;;;;;2.05;1.85;;;;;;;11.45;53.09;99303.56;4435847;32;33138;-82
2023/04/23 02:47:47;;;;;;;1.30;1.20;;;;;;;11.52;52.93;99298.22;4446544;32;33475;-81
2023/04/23 02:50:16;;;;;;;1.10;1.00;;;;;;;11.47;53.15;99302.66;4433200;32;33703;-81
2023/04/23 02:52:45;;;;;;;1.08;0.93;;;;;;;11.33;53.26;99302.09;4435742;32;33861;-81
2023/04/23 02:55:14;;;;;;;1.00;1.00;;;;;;;11.31;53.36;99296.12;4431323;32;33917;-82
2023/04/23 02:57:44;;;;;;;1.33;1.23;;;;;;;11.46;52.80;99297.50;4436452;32;34115;-81
2023/04/23 03:00:14;;;;;;;7.82;2.08;;;;;;;11.54;52.43;99304.22;4437461;32;35154;-82
2023/04/23 03:02:45;;;;;;;1.92;1.05;;;;;;;11.53;52.37;99294.72;4446283;32;33656;-79
2023/04/23 03:05:14;;;;;;;1.30;1.20;;;;;;;11.12;53.34;99293.06;4446833;32;33369;-82
2023/04/23 03:07:43;;;;;;;1.35;1.25;;;;;;;11.26;52.92;99293.63;4451955;32;33754;-80
2023/04/23 03:10:12;;;;;;;1.25;1.00;;;;;;;11.18;53.20;99292.06;4450426;32;34658;-81
2023/04/23 03:12:41;;;;;;;1.08;1.05;;;;;;;11.15;53.43;99297.34;4445757;32;34726;-82
2023/04/23 03:15:10;;;;;;;1.15;1.05;;;;;;;11.31;52.92;99299.56;4445646;32;33580;-82
2023/04/23 03:17:39;;;;;;;1.52;1.02;;;;;;;11.27;53.01;99291.87;4441847;32;34536;-82
2023/04/23 03:20:12;;;;;;;2.40;1.87;;;;;;;11.37;52.91;99297.72;4436265;32;34695;-81
2023/04/23 03:22:41;;;;;;;1.23;1.12;;;;;;;11.37;53.11;99295.97;4433507;32;33787;-79
2023/04/23 03:25:10;;;;;;;1.05;1.00;;;;;;;11.23;53.35;99298.00;4445160;32;33085;-80
2023/04/23 03:27:39;;;;;;;1.45;1.00;;;;;;;11.05;53.71;99294.94;4443336;32;33487;-82
2023/04/23 03:30:09;;;;;;;2.53;1.27;;;;;;;11.00;53.78;99293.34;4451224;32;33937;-81
2023/04/23 03:32:38;;;;;;;1.20;1.10;;;;;;;11.03;53.72;99290.66;4448126;32;33799;-80
2023/04/23 03:35:09;;;;;;;0.90;0.90;;;;;;;11.16;53.62;99297.28;4437866;32;33261;-81
2023/04/23 03:37:40;;;;;;;0.90;0.90;;;;;;;11.02;53.82;99299.34;4430983;32;33894;-82
2023/04/23 03:40:09;;;;;;;0.93;0.93;;;;;;;10.82;54.38;99299.75;4441291;32;34075;-82
2023/04/23 03:42:38;;;;;;;1.15;1.05;;;;;;;10.99;53.97;99305.44;4450410;32;33583;-80
2023/04/23 03:45:10;;;;;;;0.90;0.90;;;;;;;10.92;54.24;99308.19;4437941;32;33887;-82
2023/04/23 03:47:39;;;;;;;;;;;;;;;10.64;54.75;99304.44;4431933;32;34582;-82
2023/04/23 03:50:09;;;;;;;1.33;1.12;;;;;;;10.64;54.88;99306.19;4431957;32;34429;-80
2023/04/23 03:52:39;;;;;;;0.98;0.98;;;;;;;10.65;55.03;99300.94;4443627;32;32761;-81
2023/04/23 03:55:11;;;;;;;0.70;0.70;;;;;;;10.83;54.56;99301.47;4446199;32;33760;-81
2023/04/23 03:57:40;;;;;;;1.02;1.02;;;;;;;11.02;54.24;99309.75;4440684;32;34208;-80
2023/04/23 04:00:12;;;;;;;;;;;;;;;10.71;54.94;99292.19;4438152;32;31977;-82
2023/04/23 04:02:42;;;;;;;0.80;0.80;;;;;;;10.78;54.74;99300.72;4432856;32;33942;-81
2023/04/23 04:05:11;;;;;;;1.48;1.37;;;;;;;10.75;54.84;99299.03;4434545;32;34261;-79
2023/04/23 04:07:42;;;;;;;1.02;0.90;;;;;;;10.83;54.81;99311.84;4431800;32;33865;-81
2023/04/23 04:10:11;;;;;;;0.88;0.88;;;;;;;10.88;54.93;99316.06;4428895;32;34120;-82
2023/04/23 04:12:40;;;;;;;2.70;1.40;;;;;;;10.73;55.53;99311.19;4433918;32;34651;-81
2023/04/23 04:15:10;;;;;;;0.98;0.98;;;;;;;10.99;54.87;99312.38;4443746;32;33780;-81
2023/04/23 04:17:44;;;;;;;1.42;1.33;;;;;;;10.85;55.40;99316.13;4435006;32;34456;-80
2023/04/23 04:20:13;;;;;;;0.90;0.90;;;;;;;11.14;54.42;99316.38;4437060;32;34409;-82
2023/04/23 04:22:45;;;;;;;1.05;1.05;;;;;;;11.08;54.36;99318.22;4429689;32;33320;-80
2023/04/23 04:25:14;;;;;;;1.33;1.23;;;;;;;11.14;54.52;99321.56;4442801;32;33473;-81
2023/04/23 04:27:43;;;;;;;0.90;0.90;;;;;;;11.02;54.92;99320.97;4442850;32;34506;-81
2023/04/23 04:30:12;;;;;;;0.88;0.88;;;;;;;11.19;54.38;99327.56;4439729;32;34070;-80
2023/04/23 04:32:42;;;;;;;0.95;0.95;;;;;;;11.30;54.29;99326.41;4439029;32;33581;-80
2023/04/23 04:35:11;;;;;;;0.80;0.80;;;;;;;11.35;54.09;99322.87;4432659;32;33245;-80
2023/04/23 04:37:40;;;;;;;0.82;0.82;;;;;;;11.48;54.01;99322.56;4437298;32;34492;-81
2023/04/23 04:40:12;;;;;;;1.25;1.17;;;;;;;11.61;53.74;99325.72;4431530;32;33989;-81
2023/04/23 04:42:41;;;;;;;2.35;1.15;;;;;;;11.56;54.10;99337.13;4432697;32;33948;-80
2023/04/23 04:45:10;;;;;;;1.70;1.60;;;;;;;11.74;54.15;99336.69;4429757;32;33263;-81
2023/04/23 04:47:40;;;;;;;0.82;0.82;;;;;;;11.99;53.24;99336.13;4429451;32;34302;-82
2023/04/23 04:50:10;;;;;;;0.80;0.80;;;;;;;12.42;51.65;99333.31;4439513;32;33734;-80
2023/04/23 04:52:38;;;;;;;0.80;0.80;;;;;;;12.59;51.44;99330.25;4434518;32;33467;-81
2023/04/23 04:55:08;;;;;;;0.90;0.90;;;;;;;13.00;50.32;99330.84;4428388;32;33488;-80
2023/04/23 04:57:38;;;;;;;1.25;1.00;;;;;;;13.20;50.26;99336.31;4432099;32;34234;-81
2023/04/23 05:00:21;;;;;;;0.73;0.73;;;;;;;13.65;49.96;99335.84;4434040;32;34552;-82
2023/04/23 05:02:51;;;;;;;0.60;0.60;;;;;;;14.36;48.67;99337.91;4444079;32;34258;-80
2023/04/23 05:05:21;;;;;;;1.58;1.48;;;;;;;14.97;47.74;99340.97;4439819;32;33444;-82
2023/04/23 05:07:50;;;;;;;0.60;0.60;;;;;;;15.70;45.85;99339.94;4435186;32;33800;-80
2023/04/23 05:10:19;;;;;;;0.70;0.70;;;;;;;16.40;44.93;99337.94;4434724;32;34374;-81
2023/04/23 05:12:50;;;;;;;2.35;2.00;;;;;;;16.95;43.78;99345.19;4444904;32;33513;-82
2023/04/23 05:15:19;;;;;;;0.70;0.70;;;;;;;17.23;42.70;99344.81;4429748;32;33313;-81
2023/04/23 05:17:49;;;;;;;0.70;0.68;;;;;;;17.82;41.70;99342.91;4438285;32;33561;-80
2023/04/23 05:20:17;;;;;;;0.57;0.57;;;;;;;17.87;40.42;99336.50;4429634;32;34888;-82
2023/04/23 05:22:47;;;;;;;3.70;2.25;;;;;;;18.52;39.12;99342.00;4446867;32;34065;-83
2023/04/23 05:25:16;;;;;;;0.75;0.75;;;;;;;18.76;38.45;99337.28;4448401;32;33878;-81
2023/04/23 05:27:45;;;;;;;0.60;0.60;;;;;;;19.03;37.75;99342.03;4433880;32;33469;-82
2023/04/23 05:30:15;;;;;;;2.72;1.27;;;;;;;18.96;37.05;99344.13;4445087;32;33635;-81
2023/04/23 05:32:44;;;;;;;2.00;1.47;;;;;;;19.08;37.09;99331.25;4443420;32;33586;-82
2023/04/23 05:35:13;;;;;;;0.85;0.85;;;;;;;18.94;37.12;99339.88;4436245;32;34190;-82
2023/04/23 05:37:42;;;;;;;2.53;1.45;;;;;;;18.83;37.64;99348.34;4434703;32;34574;-81
2023/04/23 05:40:11;;;;;;;0.65;0.65;;;;;;;18.67;37.96;99339.53;4429160;32;34043;-82
2023/04/23 05:42:40;;;;;;;0.50;0.50;;;;;;;18.38;38.29;99338.41;4427083;32;34356;-81
2023/04/23 05:45:10;;;;;;;0.60;0.60;;;;;;;18.20;38.41;99342.81;4440298;32;32780;-80
2023/04/23 05:47:41;;;;;;;1.27;0.95;;;;;;;16.68;40.79;99352.47;4428384;32;33537;-82
2023/04/23 05:50:11;;;;;;;1.60;1.50;;;;;;;16.82;40.69;99343.13;4428462;32;34128;-82
2023/04/23 05:52:39;;;;;;;1.17;1.08;;;;;;;16.45;41.56;99348.22;4434784;32;34589;-81
2023/04/23 05:55:14;;;;;;;0.88;0.88;;;;;;;16.32;41.50;99345.28;4439546;32;33069;-83
2023/04/23 05:57:43;;;;;;;0.85;0.85;;;;;;;15.81;42.37;99349.12;4441127;32;33909;-83
2023/04/23 06:00:13;;;;;;;0.90;0.90;;;;;;;15.56;42.77;99350.06;4439703;32;34876;-81
2023/04/23 06:02:44;;;;;;;1.90;1.75;;;;;;;15.32;43.34;99350.09;4439799;32;33856;-82
2023/04/23 06:05:13;;;;;;;0.65;0.65;;;;;;;15.23;44.11;99350.44;4439444;32;32626;-81
2023/04/23 06:07:43;;;;;;;0.95;0.90;;;;;;;15.20;45.19;99347.06;4452269;32;35105;-82
2023/04/23 06:10:12;;;;;;;0.52;0.52;;;;;;;14.87;45.93;99347.44;4446281;32;35870;-80
2023/04/23 06:12:41;;;;;;;4.18;1.52;;;;;;;15.06;45.81;99350.22;4449228;32;33351;-80
2023/04/23 06:15:11;;;;;;;1.20;0.95;;;;;;;15.11;45.74;99349.12;4452450;32;33050;-81
2023/04/23 06:17:40;;;;;;;0.80;0.80;;;;;;;15.17;45.81;99363.72;4439440;32;33809;-82
2023/04/23 06:20:10;;;;;;;1.02;0.90;;;;;;;15.44;45.41;99363.59;4445028;32;35036;-81
2023/04/23 06:22:40;;;;;;;1.58;1.48;;;;;;;15.50;45.56;99360.75;4446305;32;35223;-82
2023/04/23 06:25:09;;;;;;;0.90;0.77;;;;;;;15.52;45.67;99359.78;4441883;32;33362;-82
2023/04/23 06:27:38;;;;;;;0.70;0.70;;;;;;;15.51;45.61;99358.09;4445059;32;33656;-82
2023/04/23 06:30:09;;;;;;;1.12;1.08;;;;;;;15.54;45.16;99357.97;4446084;32;34591;-82
2023/04/23 06:32:38;;;;;;;1.55;0.88;;;;;;;15.17;45.77;99358.50;4436563;32;33195;-81
2023/04/23 06:35:07;;;;;;;1.40;1.30;;;;;;;15.77;44.46;99362.31;4435598;32;33274;-82
2023/04/23 06:37:38;;;;;;;1.15;1.08;;;;;;;15.51;44.83;99362.44;4446357;32;33495;-80
2023/04/23 06:40:08;;;;;;;0.80;0.80;;;;;;;15.75;44.40;99364.16;4436010;32;33706;-82
2023/04/23 06:42:41;;;;;;;0.57;0.57;;;;;;;15.89;44.38;99368.81;4437890;32;33536;-81
2023/04/23 06:45:12;;;;;;;0.70;0.70;;;;;;;16.06;43.47;99362.91;4433838;32;33103;-81
2023/04/23 06:47:41;;;;;;;0.60;0.60;;;;;;;16.26;43.06;99363.84;4446450;32;33869;-83
2023/04/23 06:50:10;;;;;;;1.00;0.88;;;;;;;15.88;43.88;99364.50;4444341;32;34898;-82
2023/04/23 06:52:40;;;;;;;0.90;0.90;;;;;;;15.70;45.17;99357.38;4445490;32;33608;-80
2023/04/23 06:55:09;;;;;;;0.60;0.60;;;;;;;16.13;43.64;99363.50;4439924;32;32747;-81
2023/04/23 06:57:38;;;;;;;1.12;1.02;;;;;;;15.88;44.68;99368.91;4435442;32;33814;-82
2023/04/23 07:00:09;;;;;;;1.75;1.27;;;;;;;15.87;44.67;99360.19;4437682;32;33659;-82
2023/04/23 07:02:38;;;;;;;0.60;0.60;;;;;;;16.19;45.11;99361.50;4431189;32;33947;-81
2023/04/23 07:05:09;;;;;;;1.85;1.05;;;;;;;16.28;44.82;99362.03;4438973;32;34078;-83
2023/04/23 07:07:37;;;;;;;0.70;0.70;;;;;;;16.17;45.29;99357.25;4438055;32;34212;-81
2023/04/23 07:10:10;;;;;;;0.50;0.50;;;;;;;16.47;44.34;99351.63;4439093;32;34166;-83
2023/04/23 07:12:40;;;;;;;1.52;1.33;;;;;;;16.75;43.99;99349.53;4441947;32;33357;-81
2023/04/23 07:15:09;;;;;;;0.60;0.60;;;;;;;17.02;42.52;99351.84;4450938;32;33192;-81
2023/04/23 07:17:38;;;;;;;0.90;0.88;;;;;;;17.01;43.22;99351.03;4441077;32;33700;-81
2023/04/23 07:20:08;;;;;;;0.88;0.88;;;;;;;17.33;42.54;99348.69;4429566;32;34623;-83
2023/04/23 07:22:37;;;;;;;1.12;1.02;;;;;;;17.42;41.72;99350.00;4433492;32;33984;-82
2023/04/23 07:25:08;;;;;;;0.88;0.60;;;;;;;17.32;41.73;99351.38;4430669;32;33199;-81
2023/04/23 07:27:37;;;;;;;;;;;;;;;17.69;41.14;99350.50;4440513;32;34622;-83
2023/04/23 07:30:07;;;;;;;0.57;0.57;;;;;;;17.88;36.96;99347.88;4446542;32;34965;-81
2023/04/23 07:32:35;;;;;;;0.60;0.50;;;;;;;18.01;35.70;99342.88;4444157;32;33341;-81
2023/04/23 07:35:05;;;;;;;0.77;0.77;;;;;;;18.44;36.40;99348.59;4432319;32;32628;-81
2023/04/23 07:37:34;;;;;;;0.52;0.52;;;;;;;18.44;36.16;99348.59;4442580;32;33134;-82
2023/04/23 07:40:04;;;;;;;2.17;0.85;;;;;;;18.66;36.08;99345.72;4441083;32;34785;-81
2023/04/23 07:42:34;;;;;;;0.52;0.52;;;;;;;18.67;33.89;99348.25;4444463;32;32841;-81
2023/04/23 07:45:04;;;;;;;0.57;0.43;;;;;;;18.51;34.54;99342.97;4437637;32;34574;-82
2023/04/23 07:47:33;;;;;;;1.47;1.07;;;;;;;18.73;35.50;99345.31;4437478;32;33432;-82
2023/04/23 07:50:02;;;;;;;1.15;1.05;;;;;;;19.06;35.12;99349.72;4436246;32;33581;-81
2023/04/23 07:52:31;;;;;;;0.35;0.35;;;;;;;19.15;34.77;99348.41;4430835;32;33932;-83
2023/04/23 07:55:00;;;;;;;0.30;0.30;;;;;;;19.14;33.94;99351.97;4430683;32;33090;-82
2023/04/23 07:57:29;;;;;;;0.95;0.90;;;;;;;19.37;35.16;99346.28;4431316;32;33465;-82
2023/04/23 07:59:59;;;;;;;1.33;0.95;;;;;;;19.49;34.97;99347.41;4435816;32;34299;-83
2023/04/23 08:02:28;;;;;;;0.57;0.57;;;;;;;19.76;32.73;99346.81;4430479;32;33119;-82
2023/04/23 08:04:57;;;;;;;0.55;0.55;;;;;;;19.77;34.30;99344.13;4430789;32;33194;-82
2023/04/23 08:07:26;;;;;;;1.00;0.85;;;;;;;19.71;33.81;99340.97;4430602;32;33893;-82
2023/04/23 08:09:54;;;;;;;0.40;0.40;;;;;;;19.95;33.61;99338.72;4436203;32;34289;-82
2023/04/23 08:12:23;;;;;;;0.30;0.30;;;;;;;19.90;34.07;99341.62;4441204;32;34382;-83
2023/04/23 08:14:54;;;;;;;1.85;0.40;;;;;;;19.83;35.24;99343.75;4445593;32;34172;-83
2023/04/23 08:17:25;;;;;;;1.17;0.50;;;;;;;20.16;34.76;99342.75;4445628;32;33448;-83
2023/04/23 08:19:54;;;;;;;0.30;0.30;;;;;;;20.04;34.97;99336.41;4446016;32;33936;-81
2023/04/23 08:22:23;;;;;;;0.85;0.85;;;;;;;20.24;34.25;99340.50;4450707;32;34604;-82
2023/04/23 08:24:52;;;;;;;0.52;0.50;;;;;;;20.43;34.14;99329.75;4446190;32;34253;-82
2023/04/23 08:27:21;;;;;;;1.48;0.82;;;;;;;20.60;34.95;99335.84;4446053;32;33445;-81
2023/04/23 08:29:50;;;;;;;0.60;0.57;;;;;;;20.67;32.64;99338.00;4443313;32;34740;-82
2023/04/23 08:32:19;;;;;;;0.88;0.77;;;;;;;20.78;32.51;99344.41;4448959;32;34890;-83
2023/04/23 08:34:50;;;;;;;0.55;0.55;;;;;;;20.84;34.21;99336.13;4445790;32;33104;-82
2023/04/23 08:37:19;;;;;;;1.48;1.37;;;;;;;21.08;34.09;99339.03;4443519;32;33410;-82
2023/04/23 08:39:58;;;;;;;1.20;1.10;;;;;;;21.12;32.96;99334.41;4434859;32;33681;-82
2023/04/23 08:42:37;;;;;;;1.98;1.45;;;;;;;21.07;31.64;99332.94;4430227;32;34197;-83
2023/04/23 08:45:07;;;;;;;0.60;0.45;;;;;;;21.33;32.32;99321.66;4435949;32;33387;-82
2023/04/23 08:47:41;;;;;;;0.40;0.40;;;;;;;21.33;32.50;99325.16;4445882;32;33039;-81
2023/04/23 08:50:13;;;;;;;1.23;0.95;;;;;;;21.41;32.85;99324.72;4445547;32;33837;-83
2023/04/23 08:52:44;;;;;;;0.80;0.73;;;;;;;21.42;33.71;99321.13;4445913;32;33806;-83
2023/04/23 08:55:14;;;;;;;0.68;0.68;;;;;;;21.68;33.34;99322.94;4445621;32;33703;-82
2023/04/23 08:57:43;;;;;;;1.12;1.02;;;;;;;21.49;31.89;99319.78;4451200;32;33335;-83
2023/04/23 09:00:14;;;;;;;0.28;0.28;;;;;;;21.72;32.23;99316.50;4445904;32;33744;-82
2023/04/23 09:02:44;;;;;;;0.40;0.40;;;;;;;21.86;31.85;99320.88;4443176;32;33286;-83
2023/04/23 09:05:15;;;;;;;0.37;0.37;;;;;;;22.07;31.78;99317.78;4443037;32;33291;-81
2023/04/23 09:07:44;;;;;;;0.80;0.47;;;;;;;21.91;30.60;99317.94;4451076;32;33054;-83
2023/04/23 09:10:13;;;;;;;0.30;0.30;;;;;;;21.84;30.92;99314.87;4445933;32;33655;-84
2023/04/23 09:12:46;;;;;;;1.58;0.75;;;;;;;22.08;31.62;99316.81;4445272;32;33597;-83
2023/04/23 09:15:19;;;;;;;0.60;0.40;;;;;;;21.88;30.54;99316.34;4445289;32;33002;-83
2023/04/23 09:17:49;;;;;;;0.62;0.62;;;;;;;22.01;31.74;99316.41;4445697;32;33662;-82
2023/04/23 09:20:19;;;;;;;0.63;0.60;;;;;;;22.09;30.03;99311.44;4451123;32;34512;-82
2023/04/23 09:22:51;;;;;;;0.65;0.60;;;;;;;22.06;29.94;99311.66;4446404;32;33036;-82
2023/04/23 09:25:22;;;;;;;0.57;0.57;;;;;;;22.22;30.22;99305.34;4445380;32;33495;-81
2023/04/23 09:27:52;;;;;;;1.15;0.55;;;;;;;22.16;28.14;99302.16;4444693;32;33299;-84
2023/04/23 09:30:24;;;;;;;0.30;0.30;;;;;;;21.84;28.68;99296.38;4443704;32;34408;-83
2023/04/23 09:32:53;;;;;;;0.65;0.65;;;;;;;22.18;28.69;99304.69;4450713;32;34096;-82
2023/04/23 09:35:27;;;;;;;0.40;0.40;;;;;;;22.13;29.77;99302.38;4445445;32;34007;-82
2023/04/23 09:37:56;;;;;;;0.22;0.22;;;;;;;21.84;28.81;99304.31;4444094;32;33753;-83
2023/04/23 09:40:27;;;;;;;0.35;0.35;;;;;;;22.03;30.53;99295.97;4445471;32;34277;-83
2023/04/23 09:42:55;;;;;;;0.35;0.35;;;;;;;22.25;30.91;99299.84;4450777;32;33586;-83
2023/04/23 09:45:25;;;;;;;0.40;0.40;;;;;;;22.53;28.08;99301.47;4445076;32;33353;-83
2023/04/23 09:47:55;;;;;;;0.20;0.20;;;;;;;22.70;28.03;99300.31;4445057;32;33539;-83
2023/04/23 09:50:34;;;;;;;0.88;0.50;;;;;;;22.68;28.19;99299.56;4444468;32;33591;-82
2023/04/23 09:53:03;;;;;;;0.88;0.60;;;;;;;22.58;26.98;99294.91;4444414;32;34579;-82
2023/04/23 09:55:37;;;;;;;0.30;0.30;;;;;;;22.79;27.17;99289.09;4440716;32;34292;-82
2023/04/23 09:58:11;;;;;;;0.30;0.30;;;;;;;22.77;26.44;99291.00;4429668;32;34379;-83
2023/04/23 10:00:40;;;;;;;0.50;0.50;;;;;;;22.86;26.18;99284.19;4438691;32;34179;-83
2023/04/23 10:03:10;;;;;;;0.25;0.25;;;;;;;22.90;26.93;99283.87;4458258;32;33514;-81
2023/04/23 10:05:42;;;;;;;0.55;0.55;;;;;;;23.11;27.20;99270.97;4466164;32;33994;-83
2023/04/23 10:08:14;;;;;;;0.40;0.40;;;;;;;23.20;27.72;99278.25;4465815;32;35198;-82
2023/04/23 10:10:43;;;;;;;0.40;0.40;;;;;;;23.29;25.88;99279.34;4459361;32;34579;-82
2023/04/23 10:13:32;;;;;;;0.60;0.60;;;;;;;23.11;26.36;99270.13;4444491;32;33577;-83
2023/04/23 10:16:01;;;;;;;1.30;1.20;;;;;;;23.26;27.87;99268.16;4436794;32;34099;-82
2023/04/23 10:18:51;;;;;;;0.43;0.28;;;;;;;23.52;27.64;99269.75;4429487;32;34904;-81
2023/04/23 10:21:27;;;;;;;0.37;0.35;;;;;;;23.57;25.56;99266.78;4434600;32;33665;-81
2023/04/23 10:24:06;;;;;;;0.50;0.50;;;;;;;23.48;24.36;99270.94;4429137;32;34100;-82
2023/04/23 10:26:35;;;;;;;0.62;0.30;;;;;;;23.42;23.70;99264.28;4428917;32;32452;-83
2023/04/23 10:29:09;;;;;;;0.40;0.35;;;;;;;23.38;24.30;99260.16;4429013;32;33542;-81
2023/04/23 10:31:38;;;;;;;0.20;0.20;;;;;;;23.73;24.10;99256.78;4429177;32;33953;-83
2023/04/23 10:34:10;;;;;;;0.32;0.32;;;;;;;23.72;25.05;99257.69;4435137;32;33584;-82
2023/04/23 10:36:40;;;;;;;;;;;;;;;23.55;24.54;99250.97;4431717;32;34002;-82
2023/04/23 10:39:09;;;;;;;0.40;0.40;;;;;;;23.72;25.32;99259.50;4431197;32;34561;-81
2023/04/23 10:41:39;;;;;;;0.50;0.50;;;;;;;23.78;21.37;99244.03;4441948;32;33583;-81
2023/04/23 10:44:11;;;;;;;0.25;0.25;;;;;;;23.82;21.87;99248.13;4452043;32;33921;-82
2023/04/23 10:47:02;;;;;;;0.43;0.43;;;;;;;23.87;23.82;99252.22;4448641;32;35003;-82
2023/04/23 10:49:32;;;;;;;0.40;0.40;;;;;;;24.17;22.40;99247.25;4446449;32;34093;-82
2023/04/23 10:52:05;;;;;;;0.55;0.55;;;;;;;24.06;21.25;99233.97;4447411;32;34420;-82
2023/04/23 10:54:52;;;;;;;0.75;0.30;;;;;;;24.09;23.38;99230.25;4438239;32;33541;-83
2023/04/23 10:57:21;;;;;;;0.10;0.10;;;;;;;23.86;24.00;99238.13;4431188;32;32786;-83
2023/04/23 10:59:57;;;;;;;0.25;0.22;;;;;;;23.93;23.01;99231.41;4437267;32;34339;-81
2023/04/23 11:02:26;;;;;;;0.28;0.28;;;;;;;24.18;22.80;99240.97;4446255;32;34469;-82
2023/04/23 11:04:57;;;;;;;0.20;0.20;;;;;;;24.26;23.04;99246.56;4444422;32;33814;-83
2023/04/23 11:07:30;;;;;;;;;;;;;;;24.48;21.12;99237.81;4435873;32;33039;-82
2023/04/23 11:09:59;;;;;;;0.40;0.35;;;;;;;24.59;18.66;99236.94;4452019;32;33712;-81
2023/04/23 11:12:33;;;;;;;0.20;0.20;;;;;;;24.64;19.18;99232.13;4450075;32;34681;-84
2023/04/23 11:15:11;;;;;;;0.20;0.20;;;;;;;24.52;19.81;99230.44;4446425;32;33563;-81
2023/04/23 11:17:59;;;;;;;0.10;0.10;;;;;;;24.54;21.59;99231.16;4440394;32;33102;-83
2023/04/23 11:20:27;;;;;;;0.37;0.28;;;;;;;24.68;22.11;99235.41;4430768;32;34512;-82
2023/04/23 11:22:58;;;;;;;0.10;0.10;;;;;;;24.84;20.69;99224.41;4432286;32;33963;-83
2023/04/23 11:25:27;;;;;;;0.40;0.40;;;;;;;24.96;19.68;99231.41;4442384;32;33635;-83
2023/04/23 11:27:58;;;;;;;0.20;0.20;;;;;;;25.01;20.08;99225.69;4439194;32;33949;-83
2023/04/23 11:30:28;;;;;;;0.17;0.17;;;;;;;24.84;21.11;99222.59;4433243;32;34672;-82
2023/04/23 11:32:58;;;;;;;0.55;0.40;;;;;;;25.11;20.48;99229.31;4444828;32;33647;-84
2023/04/23 11:35:29;;;;;;;;;;;;;;;25.34;20.25;99228.28;4442021;32;34574;-82
2023/04/23 11:37:59;;;;;;;1.15;0.70;;;;;;;25.05;21.71;99225.31;4445540;32;33406;-82
2023/04/23 11:40:29;;;;;;;0.10;0.10;;;;;;;25.12;19.37;99221.22;4446294;32;32430;-82
2023/04/23 11:42:58;;;;;;;0.10;0.10;;;;;;;25.10;19.81;99212.56;4445812;32;34338;-83
2023/04/23 11:45:28;;;;;;;1.10;0.40;;;;;;;25.43;20.64;99215.25;4446530;32;33985;-82
2023/04/23 11:47:58;;;;;;;0.20;0.20;;;;;;;25.49;21.49;99212.06;4451670;32;33212;-84